createdAt,value
2022-12-18T00:02:06.192Z,13.85
2022-12-18T00:04:34.171Z,13.70
2022-12-18T00:07:04.400Z,14.48
2022-12-18T00:09:39.364Z,13.95
2022-12-18T00:14:46.488Z,14.05
2022-12-18T00:17:14.276Z,15.00
2022-12-18T00:19:42.227Z,14.40
2022-12-18T00:22:09.954Z,14.15
2022-12-18T00:24:37.839Z,13.30
2022-12-18T00:27:05.560Z,15.05
2022-12-18T00:29:33.265Z,15.15
2022-12-18T00:32:01.160Z,14.57
2022-12-18T00:34:28.961Z,13.77
2022-12-18T00:36:56.700Z,14.80
2022-12-18T00:39:24.635Z,14.40
2022-12-18T00:42:10.003Z,15.57
2022-12-18T00:44:38.481Z,15.15
2022-12-18T00:47:06.265Z,13.75
2022-12-18T00:49:34.086Z,13.50
2022-12-18T00:52:01.841Z,13.90
2022-12-18T00:54:29.718Z,14.52
2022-12-18T00:56:57.476Z,14.18
2022-12-18T00:59:25.394Z,13.98
2022-12-18T01:01:53.212Z,13.85
2022-12-18T01:04:21.106Z,13.90
2022-12-18T01:06:48.960Z,13.85
2022-12-18T01:09:16.876Z,14.18
2022-12-18T01:11:44.691Z,13.85
2022-12-18T01:14:12.647Z,13.27
2022-12-18T01:16:40.469Z,14.43
2022-12-18T01:19:08.249Z,14.27
2022-12-18T01:21:36.055Z,14.27
2022-12-18T01:24:03.800Z,13.77
2022-12-18T01:26:31.570Z,15.07
2022-12-18T01:28:59.436Z,14.17
2022-12-18T01:31:27.220Z,14.40
2022-12-18T01:33:55.104Z,13.82
2022-12-18T01:36:22.834Z,13.45
2022-12-18T01:38:50.784Z,14.07
2022-12-18T01:41:18.722Z,14.68
2022-12-18T01:43:46.514Z,13.70
2022-12-18T01:46:14.615Z,13.38
2022-12-18T01:48:42.512Z,13.80
2022-12-18T01:51:10.291Z,14.05
2022-12-18T01:53:38.589Z,14.30
2022-12-18T01:56:06.753Z,13.73
2022-12-18T01:58:34.709Z,14.73
2022-12-18T02:01:02.579Z,13.95
2022-12-18T02:03:30.592Z,13.77
2022-12-18T02:05:58.384Z,12.90
2022-12-18T02:08:26.209Z,14.00
2022-12-18T02:10:54.098Z,13.38
2022-12-18T02:13:22.087Z,13.85
2022-12-18T02:15:49.962Z,13.05
2022-12-18T02:18:17.769Z,13.70
2022-12-18T02:20:45.834Z,13.20
2022-12-18T02:23:13.689Z,12.80
2022-12-18T02:25:41.527Z,13.63
2022-12-18T02:28:09.536Z,12.73
2022-12-18T02:30:37.404Z,13.50
2022-12-18T02:33:05.223Z,13.10
2022-12-18T02:35:34.023Z,12.85
2022-12-18T02:38:01.939Z,13.70
2022-12-18T02:40:29.927Z,13.00
2022-12-18T02:42:57.756Z,13.27
2022-12-18T02:45:25.610Z,13.20
2022-12-18T02:47:53.402Z,13.05
2022-12-18T02:50:22.227Z,12.73
2022-12-18T02:52:50.000Z,13.40
2022-12-18T02:55:17.785Z,13.27
2022-12-18T02:57:45.653Z,12.57
2022-12-18T03:00:13.715Z,11.07
2022-12-18T03:02:41.825Z,12.07
2022-12-18T03:05:09.687Z,12.27
2022-12-18T03:07:37.517Z,12.85
2022-12-18T03:10:05.256Z,12.63
2022-12-18T03:12:33.079Z,13.23
2022-12-18T03:15:01.365Z,12.93
2022-12-18T03:17:29.179Z,12.68
2022-12-18T03:19:56.940Z,12.55
2022-12-18T03:22:24.720Z,12.30
2022-12-18T03:24:52.545Z,12.35
2022-12-18T03:27:20.334Z,12.18
2022-12-18T03:29:48.148Z,12.43
2022-12-18T03:32:15.928Z,12.40
2022-12-18T03:34:43.847Z,12.48
2022-12-18T03:37:11.628Z,11.35
2022-12-18T03:39:39.422Z,11.45
2022-12-18T03:42:07.260Z,12.57
2022-12-18T03:44:35.012Z,12.40
2022-12-18T03:47:02.808Z,12.07
2022-12-18T03:49:30.667Z,11.90
2022-12-18T03:51:58.420Z,11.90
2022-12-18T03:54:26.518Z,11.70
2022-12-18T03:56:54.314Z,12.25
2022-12-18T03:59:22.117Z,11.93
2022-12-18T04:01:49.957Z,11.80
2022-12-18T04:04:18.057Z,11.60
2022-12-18T04:06:45.905Z,11.63
2022-12-18T04:09:13.735Z,11.30
2022-12-18T04:11:41.581Z,11.25
2022-12-18T04:14:11.954Z,11.85
2022-12-18T04:16:43.784Z,11.85
2022-12-18T04:19:11.608Z,11.73
2022-12-18T04:21:39.456Z,11.70
2022-12-18T04:24:07.221Z,11.43
2022-12-18T04:26:35.229Z,11.32
2022-12-18T04:29:03.056Z,10.32
2022-12-18T04:31:31.007Z,10.68
2022-12-18T04:33:58.829Z,11.52
2022-12-18T04:36:26.593Z,11.60
2022-12-18T04:38:54.430Z,11.32
2022-12-18T04:41:22.220Z,10.70
2022-12-18T04:43:50.065Z,10.50
2022-12-18T04:46:17.927Z,10.60
2022-12-18T04:48:45.698Z,10.80
2022-12-18T04:51:13.479Z,10.18
2022-12-18T04:53:41.725Z,10.85
2022-12-18T04:56:09.995Z,11.05
2022-12-18T04:58:37.818Z,9.93
2022-12-18T05:01:05.615Z,10.77
2022-12-18T05:03:33.481Z,10.68
2022-12-18T05:06:01.284Z,10.10
2022-12-18T05:08:29.055Z,9.77
2022-12-18T05:10:56.828Z,10.00
2022-12-18T05:13:24.594Z,10.27
2022-12-18T05:15:52.434Z,9.95
2022-12-18T05:18:20.271Z,9.63
2022-12-18T05:20:48.452Z,10.00
2022-12-18T05:23:16.228Z,9.80
2022-12-18T05:25:43.988Z,9.93
2022-12-18T05:28:12.778Z,9.45
2022-12-18T05:30:40.607Z,10.07
2022-12-18T05:33:08.468Z,9.82
2022-12-18T05:35:36.339Z,9.85
2022-12-18T05:38:04.319Z,9.20
2022-12-18T05:40:32.142Z,9.55
2022-12-18T05:43:01.207Z,9.55
2022-12-18T05:45:29.047Z,8.95
2022-12-18T05:47:56.898Z,8.77
2022-12-18T05:50:25.125Z,8.95
2022-12-18T05:52:53.549Z,8.13
2022-12-18T05:55:21.472Z,8.10
2022-12-18T05:57:49.401Z,7.68
2022-12-18T06:00:17.556Z,7.20
2022-12-18T06:02:45.563Z,7.50
2022-12-18T06:05:14.108Z,6.80
2022-12-18T06:07:42.036Z,6.32
2022-12-18T06:10:09.842Z,5.63
2022-12-18T06:12:37.700Z,6.03
2022-12-18T06:15:05.720Z,4.80
2022-12-18T06:17:33.562Z,4.95
2022-12-18T06:20:02.153Z,4.40
2022-12-18T06:22:30.157Z,4.50
2022-12-18T06:24:58.168Z,4.60
2022-12-18T06:27:26.021Z,4.18
2022-12-18T06:29:54.065Z,5.18
2022-12-18T06:32:21.871Z,4.13
2022-12-18T06:34:49.769Z,3.92
2022-12-18T06:37:17.745Z,4.10
2022-12-18T06:39:45.600Z,3.88
2022-12-18T06:42:13.789Z,4.43
2022-12-18T06:44:41.727Z,4.35
2022-12-18T06:47:09.674Z,4.65
2022-12-18T06:49:37.614Z,4.13
2022-12-18T06:52:05.479Z,4.43
2022-12-18T06:54:33.293Z,4.90
2022-12-18T06:57:02.359Z,5.18
2022-12-18T06:59:30.223Z,4.90
2022-12-18T07:01:58.249Z,5.50
2022-12-18T07:04:27.623Z,5.30
2022-12-18T07:06:55.753Z,5.63
2022-12-18T07:09:23.617Z,5.38
2022-12-18T07:11:51.481Z,6.07
2022-12-18T07:14:20.140Z,5.45
2022-12-18T07:16:48.289Z,5.65
2022-12-18T07:19:16.510Z,5.97
2022-12-18T07:21:44.354Z,6.03
2022-12-18T07:24:12.204Z,6.40
2022-12-18T07:26:40.149Z,5.85
2022-12-18T07:29:07.990Z,6.30
2022-12-18T07:31:35.984Z,6.05
2022-12-18T07:34:03.766Z,5.97
2022-12-18T07:36:31.552Z,6.22
2022-12-18T07:38:59.457Z,6.03
2022-12-18T07:41:27.372Z,6.20
2022-12-18T07:43:55.298Z,6.72
2022-12-18T07:46:23.415Z,5.97
2022-12-18T07:48:51.330Z,6.07
2022-12-18T07:51:19.314Z,6.25
2022-12-18T07:53:51.276Z,5.90
2022-12-18T07:56:29.166Z,5.10
2022-12-18T07:58:58.056Z,5.25
2022-12-18T08:01:26.074Z,4.93
2022-12-18T08:03:54.243Z,5.30
2022-12-18T08:06:24.341Z,5.30
2022-12-18T08:08:52.579Z,4.60
2022-12-18T08:11:20.449Z,5.50
2022-12-18T08:13:49.479Z,5.50
2022-12-18T08:16:17.708Z,5.22
2022-12-18T08:18:45.558Z,5.18
2022-12-18T08:21:13.401Z,5.28
2022-12-18T08:23:43.377Z,5.35
2022-12-18T08:26:11.512Z,5.20
2022-12-18T08:28:39.349Z,5.90
2022-12-18T08:31:07.460Z,5.43
2022-12-18T08:33:35.706Z,5.90
2022-12-18T08:36:03.611Z,5.45
2022-12-18T08:38:31.398Z,5.85
2022-12-18T08:40:59.211Z,5.78
2022-12-18T08:43:56.203Z,5.40
2022-12-18T08:46:24.056Z,5.40
2022-12-18T08:48:52.033Z,5.53
2022-12-18T08:51:20.196Z,5.63
2022-12-18T08:53:48.040Z,5.57
2022-12-18T08:56:16.024Z,5.75
2022-12-18T08:58:43.854Z,5.80
2022-12-18T09:01:11.809Z,5.47
2022-12-18T09:03:40.057Z,5.53
2022-12-18T09:06:08.203Z,6.15
2022-12-18T09:08:36.136Z,6.53
2022-12-18T09:11:04.112Z,6.20
2022-12-18T09:13:32.035Z,6.07
2022-12-18T09:15:59.881Z,7.70
2022-12-18T09:18:27.905Z,6.47
2022-12-18T09:20:55.781Z,6.22
2022-12-18T09:23:23.682Z,6.07
2022-12-18T09:25:51.682Z,6.53
2022-12-18T09:28:19.488Z,7.32
2022-12-18T09:30:47.385Z,7.78
2022-12-18T09:33:15.221Z,6.85
2022-12-18T09:35:43.645Z,6.90
2022-12-18T09:38:11.429Z,7.05
2022-12-18T09:40:39.267Z,6.95
2022-12-18T09:43:07.422Z,7.03
2022-12-18T09:45:36.912Z,7.22
2022-12-18T09:48:06.257Z,6.95
2022-12-18T09:50:34.589Z,7.10
2022-12-18T09:53:03.916Z,7.18
2022-12-18T09:55:36.789Z,6.30
2022-12-18T09:58:05.519Z,7.40
2022-12-18T10:00:34.802Z,7.18
2022-12-18T10:03:02.847Z,6.90
2022-12-18T10:05:30.743Z,7.20
2022-12-18T10:07:58.501Z,8.50
2022-12-18T10:10:26.249Z,7.43
2022-12-18T10:12:54.117Z,7.40
2022-12-18T10:15:22.829Z,7.70
2022-12-18T10:17:50.566Z,7.03
2022-12-18T10:20:18.323Z,7.38
2022-12-18T10:22:46.282Z,7.13
2022-12-18T10:25:14.080Z,8.18
2022-12-18T10:27:41.826Z,7.80
2022-12-18T10:30:09.618Z,7.35
2022-12-18T10:32:37.325Z,7.47
2022-12-18T10:35:05.814Z,7.07
2022-12-18T10:37:33.863Z,6.95
2022-12-18T10:40:01.965Z,7.68
2022-12-18T10:42:30.065Z,7.60
2022-12-18T10:44:58.680Z,7.53
2022-12-18T10:47:26.930Z,7.53
2022-12-18T10:49:56.180Z,7.72
2022-12-18T10:52:24.260Z,7.90
2022-12-18T10:54:52.227Z,7.22
2022-12-18T10:57:20.285Z,7.10
2022-12-18T10:59:48.386Z,7.72
2022-12-18T11:02:16.672Z,9.27
2022-12-18T11:04:44.925Z,7.03
2022-12-18T11:07:13.176Z,7.55
2022-12-18T11:09:41.908Z,7.53
2022-12-18T11:12:09.982Z,8.20
2022-12-18T11:14:40.969Z,6.50
2022-12-18T11:17:28.443Z,7.00
2022-12-18T11:19:56.628Z,7.78
2022-12-18T11:22:24.675Z,6.90
2022-12-18T11:25:22.518Z,7.20
2022-12-18T11:27:41.065Z,7.07
2022-12-18T11:30:08.887Z,7.07
2022-12-18T11:32:36.682Z,6.78
2022-12-18T11:35:04.460Z,6.47
2022-12-18T11:37:32.199Z,6.68
2022-12-18T11:40:00.120Z,7.13
2022-12-18T11:42:27.921Z,6.63
2022-12-18T11:44:55.771Z,6.78
2022-12-18T11:47:23.550Z,7.10
2022-12-18T11:49:51.348Z,6.35
2022-12-18T11:52:19.146Z,7.15
2022-12-18T11:54:51.780Z,8.85
2022-12-18T11:57:19.554Z,6.80
2022-12-18T11:59:47.333Z,6.70
2022-12-18T12:02:15.318Z,6.85
2022-12-18T12:04:43.369Z,6.93
2022-12-18T12:07:11.193Z,7.18
2022-12-18T12:09:40.028Z,6.72
2022-12-18T12:12:07.817Z,6.50
2022-12-18T12:14:35.615Z,6.82
2022-12-18T12:17:03.376Z,6.50
2022-12-18T12:19:31.154Z,7.78
2022-12-18T12:21:58.889Z,6.85
2022-12-18T12:24:27.024Z,6.80
2022-12-18T12:26:54.775Z,6.78
2022-12-18T12:29:22.883Z,7.07
2022-12-18T12:31:50.750Z,7.40
2022-12-18T12:34:18.790Z,6.80
2022-12-18T12:36:46.606Z,6.68
2022-12-18T12:39:14.534Z,6.80
2022-12-18T12:42:01.848Z,7.63
2022-12-18T12:44:29.640Z,6.68
2022-12-18T12:46:57.847Z,6.43
2022-12-18T12:49:25.782Z,6.45
2022-12-18T12:51:53.669Z,7.55
2022-12-18T12:54:22.731Z,6.60
2022-12-18T12:56:50.831Z,7.35
2022-12-18T12:59:19.350Z,6.20
2022-12-18T13:01:47.760Z,6.20
2022-12-18T13:04:16.266Z,5.72
2022-12-18T13:09:32.162Z,4.93
2022-12-18T13:12:19.564Z,5.70
2022-12-18T13:14:47.327Z,6.68
2022-12-18T13:17:15.112Z,4.90
2022-12-18T13:19:43.109Z,4.30
2022-12-18T13:22:11.094Z,4.45
2022-12-18T13:24:39.574Z,4.10
2022-12-18T13:27:07.377Z,4.10
2022-12-18T13:29:35.552Z,3.80
2022-12-18T13:32:03.957Z,3.40
2022-12-18T13:34:32.727Z,3.75
2022-12-18T13:37:01.050Z,3.15
2022-12-18T13:39:34.284Z,3.90
2022-12-18T13:42:02.726Z,2.90
2022-12-18T13:44:30.542Z,2.95
2022-12-18T13:46:58.332Z,3.20
2022-12-18T13:49:26.166Z,2.95
2022-12-18T13:51:54.353Z,3.20
2022-12-18T13:54:22.175Z,3.10
2022-12-18T13:56:50.302Z,3.20
2022-12-18T13:59:18.577Z,3.47
2022-12-18T14:01:46.538Z,3.33
2022-12-18T14:04:14.500Z,3.33
2022-12-18T14:06:44.064Z,4.57
2022-12-18T14:09:13.985Z,3.58
2022-12-18T14:11:42.501Z,3.67
2022-12-18T14:14:10.699Z,4.10
2022-12-18T14:16:38.977Z,4.18
2022-12-18T14:19:14.949Z,6.72
2022-12-18T14:21:43.294Z,4.32
2022-12-18T14:24:11.126Z,4.80
2022-12-18T14:26:38.980Z,4.70
2022-12-18T14:29:06.797Z,4.78
2022-12-18T14:31:34.576Z,4.97
2022-12-18T14:34:02.372Z,4.45
2022-12-18T14:36:30.155Z,4.78
2022-12-18T14:38:57.980Z,5.15
2022-12-18T14:41:25.793Z,4.97
2022-12-18T14:43:53.612Z,4.57
2022-12-18T14:46:21.542Z,5.10
2022-12-18T14:48:49.982Z,5.43
2022-12-18T14:51:17.856Z,5.30
2022-12-18T14:53:52.196Z,5.18
2022-12-18T14:56:22.057Z,5.88
2022-12-18T14:58:49.891Z,5.85
2022-12-18T15:01:17.775Z,5.93
2022-12-18T15:03:45.796Z,5.93
2022-12-18T15:06:14.440Z,5.85
2022-12-18T15:08:42.353Z,6.05
2022-12-18T15:11:13.310Z,5.47
2022-12-18T15:13:41.699Z,5.43
2022-12-18T15:16:09.821Z,5.25
2022-12-18T15:18:37.693Z,4.95
2022-12-18T15:21:05.444Z,4.53
2022-12-18T15:23:35.267Z,4.60
2022-12-18T15:26:05.052Z,4.20
2022-12-18T15:28:34.574Z,3.83
2022-12-18T15:31:02.472Z,4.00
2022-12-18T15:33:30.349Z,3.90
2022-12-18T15:35:58.142Z,4.05
2022-12-18T15:38:25.939Z,3.88
2022-12-18T15:40:53.752Z,3.80
2022-12-18T15:43:37.677Z,4.07
2022-12-18T15:46:05.739Z,4.30
2022-12-18T15:48:33.537Z,4.40
2022-12-18T15:51:02.460Z,4.90
2022-12-18T15:53:30.602Z,4.78
2022-12-18T15:56:15.711Z,4.95
2022-12-18T15:58:44.302Z,4.70
2022-12-18T16:01:12.257Z,5.07
2022-12-18T16:03:40.439Z,5.60
2022-12-18T16:06:08.727Z,5.63
2022-12-18T16:08:36.488Z,5.38
2022-12-18T16:11:04.283Z,5.53
2022-12-18T16:13:32.021Z,5.68
2022-12-18T16:16:00.090Z,6.07
2022-12-18T16:18:28.287Z,6.15
2022-12-18T16:20:56.060Z,5.95
2022-12-18T16:23:23.857Z,6.30
2022-12-18T16:25:52.756Z,6.57
2022-12-18T16:28:20.700Z,6.10
2022-12-18T16:30:48.711Z,5.90
2022-12-18T16:33:16.504Z,5.38
2022-12-18T16:35:44.276Z,5.05
2022-12-18T16:38:12.003Z,5.35
2022-12-18T16:40:59.754Z,4.95
2022-12-18T16:43:27.558Z,5.45
2022-12-18T16:45:58.273Z,5.13
2022-12-18T16:48:26.192Z,5.30
2022-12-18T16:50:53.956Z,6.00
2022-12-18T16:53:21.939Z,5.88
2022-12-18T16:55:49.787Z,5.63
2022-12-18T16:58:17.557Z,5.53
2022-12-18T17:00:45.456Z,5.90
2022-12-18T17:03:13.579Z,6.55
2022-12-18T17:05:41.659Z,6.22
2022-12-18T17:08:09.469Z,6.20
2022-12-18T17:10:37.397Z,7.05
2022-12-18T17:13:05.171Z,6.00
2022-12-18T17:15:32.965Z,6.38
2022-12-18T17:18:00.718Z,6.50
2022-12-18T17:20:28.546Z,6.72
2022-12-18T17:23:02.181Z,6.28
2022-12-18T17:25:30.763Z,6.60
2022-12-18T17:27:58.770Z,6.30
2022-12-18T17:30:26.579Z,6.25
2022-12-18T17:32:54.347Z,5.85
2022-12-18T17:35:22.312Z,5.97
2022-12-18T17:37:52.690Z,5.82
2022-12-18T17:40:20.398Z,6.13
2022-12-18T17:42:48.189Z,6.38
2022-12-18T17:45:15.951Z,6.13
2022-12-18T17:47:43.726Z,6.00
2022-12-18T17:50:11.444Z,6.60
2022-12-18T17:52:39.238Z,6.57
2022-12-18T17:55:07.023Z,6.47
2022-12-18T17:57:34.792Z,6.85
2022-12-18T18:02:54.695Z,7.00
2022-12-18T18:05:22.841Z,6.88
2022-12-18T18:07:50.954Z,6.90
2022-12-18T18:10:20.552Z,7.30
2022-12-18T18:13:05.714Z,7.68
2022-12-18T18:15:33.623Z,7.18
2022-12-18T18:18:02.638Z,7.40
2022-12-18T18:20:30.766Z,6.97
2022-12-18T18:22:58.777Z,6.68
2022-12-18T18:25:26.602Z,6.25
2022-12-18T18:27:54.428Z,6.35
2022-12-18T18:30:30.999Z,6.30
2022-12-18T18:32:59.372Z,6.00
2022-12-18T18:35:53.020Z,6.45
2022-12-18T18:38:14.837Z,6.60
2022-12-18T18:40:42.930Z,6.68
2022-12-18T18:43:10.736Z,6.30
2022-12-18T18:45:38.574Z,6.95
2022-12-18T18:48:07.960Z,7.00
2022-12-18T18:50:35.744Z,6.60
2022-12-18T18:53:03.465Z,7.28
2022-12-18T18:55:31.228Z,7.30
2022-12-18T18:57:59.098Z,6.93
2022-12-18T19:00:28.661Z,7.40
2022-12-18T19:03:00.814Z,7.80
2022-12-18T19:05:28.838Z,6.88
2022-12-18T19:07:56.728Z,7.38
2022-12-18T19:10:24.576Z,7.38
2022-12-18T19:13:10.146Z,7.13
2022-12-18T19:15:37.916Z,6.88
2022-12-18T19:18:05.994Z,6.97
2022-12-18T19:20:33.907Z,6.97
2022-12-18T19:23:01.732Z,7.13
2022-12-18T19:25:40.230Z,6.85
2022-12-18T19:28:13.516Z,6.95
2022-12-18T19:30:50.101Z,6.67
2022-12-18T19:33:41.664Z,6.45
2022-12-18T19:36:06.935Z,6.50
2022-12-18T19:38:36.817Z,6.65
2022-12-18T19:41:04.554Z,6.82
2022-12-18T19:43:35.835Z,6.45
2022-12-18T19:46:04.666Z,7.25
2022-12-18T19:48:32.415Z,6.55
2022-12-18T19:51:00.110Z,6.35
2022-12-18T19:53:27.891Z,7.35
2022-12-18T19:55:55.638Z,7.15
2022-12-18T19:58:23.420Z,7.40
2022-12-18T20:00:52.560Z,7.30
2022-12-18T20:03:28.744Z,7.10
2022-12-18T20:05:59.723Z,7.43
2022-12-18T20:08:27.487Z,7.78
2022-12-18T20:10:55.364Z,7.80
2022-12-18T20:13:23.102Z,7.82
2022-12-18T20:15:51.941Z,7.82
2022-12-18T20:18:19.687Z,7.50
2022-12-18T20:20:47.859Z,8.00
2022-12-18T20:23:18.569Z,7.88
2022-12-18T20:25:46.288Z,7.75
2022-12-18T20:28:13.980Z,8.20
2022-12-18T20:30:41.832Z,7.65
2022-12-18T20:33:09.629Z,8.02
2022-12-18T20:35:37.584Z,8.30
2022-12-18T20:38:05.896Z,8.60
2022-12-18T20:40:34.418Z,8.18
2022-12-18T20:43:02.869Z,8.32
2022-12-18T20:45:30.905Z,8.35
2022-12-18T20:47:59.670Z,8.00
2022-12-18T20:50:27.412Z,8.43
2022-12-18T20:52:55.111Z,8.70
2022-12-18T20:55:23.045Z,8.35
2022-12-18T20:57:52.761Z,8.80
2022-12-18T21:00:21.230Z,8.15
2022-12-18T21:02:49.208Z,8.23
2022-12-18T21:05:17.254Z,8.27
2022-12-18T21:07:44.984Z,8.52
2022-12-18T21:10:12.729Z,8.52
2022-12-18T21:12:50.273Z,8.40
2022-12-18T21:15:30.293Z,9.20
2022-12-18T21:17:58.049Z,7.78
2022-12-18T21:20:26.110Z,8.13
2022-12-18T21:22:54.103Z,8.60
2022-12-18T21:25:25.139Z,8.43
2022-12-18T21:27:52.990Z,8.07
2022-12-18T21:30:20.929Z,8.13
2022-12-18T21:32:48.880Z,8.18
2022-12-18T21:35:16.865Z,8.10
2022-12-18T21:37:45.548Z,8.10
2022-12-18T21:40:13.291Z,8.20
2022-12-18T21:42:58.477Z,8.45
2022-12-18T21:45:26.392Z,8.65
2022-12-18T21:47:54.283Z,8.75
2022-12-18T21:50:22.075Z,8.88
2022-12-18T21:52:50.078Z,8.73
2022-12-18T21:55:17.842Z,8.80
2022-12-18T21:57:45.753Z,8.50
2022-12-18T22:00:18.674Z,8.65
2022-12-18T22:02:47.658Z,8.60
2022-12-18T22:05:15.803Z,8.40
2022-12-18T22:07:43.543Z,8.25
2022-12-18T22:10:11.673Z,8.35
2022-12-18T22:12:43.677Z,8.80
2022-12-18T22:15:12.737Z,9.10
2022-12-18T22:17:43.680Z,8.32
2022-12-18T22:20:11.443Z,8.63
2022-12-18T22:22:39.121Z,8.60
2022-12-18T22:25:06.899Z,8.50
2022-12-18T22:27:34.666Z,7.90
2022-12-18T22:30:04.401Z,8.18
2022-12-18T22:32:32.138Z,8.38
2022-12-18T22:35:05.307Z,8.23
2022-12-18T22:37:36.036Z,8.18
2022-12-18T22:40:04.828Z,8.55
2022-12-18T22:42:33.877Z,9.65
2022-12-18T22:45:01.672Z,8.73
2022-12-18T22:47:30.617Z,7.80
2022-12-18T22:49:58.564Z,8.07
2022-12-18T22:52:26.325Z,8.40
2022-12-18T22:54:54.446Z,8.20
2022-12-18T22:57:22.321Z,7.95
2022-12-18T22:59:50.345Z,8.45
2022-12-18T23:02:18.885Z,8.60
2022-12-18T23:04:47.806Z,8.50
2022-12-18T23:07:15.773Z,8.45
2022-12-18T23:09:43.546Z,8.18
2022-12-18T23:12:11.326Z,8.30
2022-12-18T23:14:39.341Z,8.00
2022-12-18T23:17:07.144Z,8.10
2022-12-18T23:19:34.881Z,8.18
2022-12-18T23:22:05.100Z,8.38
2022-12-18T23:24:36.405Z,7.97
2022-12-18T23:27:05.703Z,8.88
2022-12-18T23:29:37.347Z,7.68
2022-12-18T23:32:05.140Z,8.55
2022-12-18T23:34:34.075Z,7.78
2022-12-18T23:37:03.853Z,8.35
2022-12-18T23:39:31.807Z,7.90
2022-12-18T23:41:59.584Z,7.78
2022-12-18T23:44:27.405Z,7.93
2022-12-18T23:46:55.516Z,7.93
2022-12-18T23:49:23.500Z,8.40
2022-12-18T23:51:51.610Z,7.40
2022-12-18T23:54:22.646Z,7.68
2022-12-18T23:57:00.588Z,7.75
2022-12-18T23:59:28.603Z,8.15
